Virtual Norwegian is not affiliated with Norwegian Air Shuttle in any way.
If you are looking for the real "Norwegian", or you wish to book Norwegian flights, please visit Norwegian.com


We use cookies to ensure you get the best experience on our website.   ACCEPT

ESNZ - OSD - Östersund (Östersund Airport)

General Info Alternate Airport
ICAO: ESNZ Elevation: 1233 ft ICAO: ESOK
IATA: OSD Country: Sweden IATA: KSD
City: Östersund Charts: Log in to view charts City: Karlstad
Name: Östersund Airport Hub: No Name Karlstad Airport
General Info
ICAO: ESNZ
IATA: OSD
City: Östersund
Name: Östersund Airport
Elevation: 1233 ft
Country: Sweden
Charts: Log in to view charts
Hub: No
 
Alternate Airport
ICAO: ESOK
IATA: KSD
City: Karlstad
Name: Karlstad Airport

Weather
121120Z 17012KT 9999 FEW025 SCT070 02/M01 Q0989
Weather
121120Z 17012KT 9999 FEW025 SCT070 02/M01 Q0989

NOTAMs
NOTAMs currently unavailable.
NOTAMs
NOTAMs currently unavailable

Route map
Airport
Airport (hub)